sensor_id;sensor_type;location;lat;lon;timestamp;temperature;humidity
70246;SHT30;57637;49.272;8.590;2023-03-19T00:01:40;10.14;76.90
70246;SHT30;57637;49.272;8.590;2023-03-19T00:04:05;10.12;77.10
70246;SHT30;57637;49.272;8.590;2023-03-19T00:06:30;10.16;77.62
70246;SHT30;57637;49.272;8.590;2023-03-19T00:08:56;10.16;77.28
70246;SHT30;57637;49.272;8.590;2023-03-19T00:11:21;10.20;77.24
70246;SHT30;57637;49.272;8.590;2023-03-19T00:13:47;10.16;77.80
70246;SHT30;57637;49.272;8.590;2023-03-19T00:16:12;10.19;77.52
70246;SHT30;57637;49.272;8.590;2023-03-19T00:18:37;10.17;77.58
70246;SHT30;57637;49.272;8.590;2023-03-19T00:21:03;10.19;77.11
70246;SHT30;57637;49.272;8.590;2023-03-19T00:23:28;10.24;76.40
70246;SHT30;57637;49.272;8.590;2023-03-19T00:25:54;10.32;76.06
70246;SHT30;57637;49.272;8.590;2023-03-19T00:28:19;10.26;76.04
70246;SHT30;57637;49.272;8.590;2023-03-19T00:30:44;10.33;75.95
70246;SHT30;57637;49.272;8.590;2023-03-19T00:33:10;10.28;77.23
70246;SHT30;57637;49.272;8.590;2023-03-19T00:35:35;10.23;78.73
70246;SHT30;57637;49.272;8.590;2023-03-19T00:38:03;10.19;78.81
70246;SHT30;57637;49.272;8.590;2023-03-19T00:40:28;10.14;79.41
70246;SHT30;57637;49.272;8.590;2023-03-19T00:42:54;10.14;79.13
70246;SHT30;57637;49.272;8.590;2023-03-19T00:45:19;10.09;80.03
70246;SHT30;57637;49.272;8.590;2023-03-19T00:47:45;9.99;80.32
70246;SHT30;57637;49.272;8.590;2023-03-19T00:50:11;9.95;80.05
70246;SHT30;57637;49.272;8.590;2023-03-19T00:52:37;9.96;80.15
70246;SHT30;57637;49.272;8.590;2023-03-19T00:55:02;9.93;80.01
70246;SHT30;57637;49.272;8.590;2023-03-19T00:57:28;9.98;80.21
70246;SHT30;57637;49.272;8.590;2023-03-19T00:59:53;9.92;80.69
70246;SHT30;57637;49.272;8.590;2023-03-19T01:02:18;9.86;80.87
70246;SHT30;57637;49.272;8.590;2023-03-19T01:04:46;9.92;81.17
70246;SHT30;57637;49.272;8.590;2023-03-19T01:07:12;9.96;82.52
70246;SHT30;57637;49.272;8.590;2023-03-19T01:09:38;9.89;83.20
70246;SHT30;57637;49.272;8.590;2023-03-19T01:12:05;9.85;83.21
70246;SHT30;57637;49.272;8.590;2023-03-19T01:14:31;9.82;83.23
70246;SHT30;57637;49.272;8.590;2023-03-19T01:16:57;9.61;83.98
70246;SHT30;57637;49.272;8.590;2023-03-19T01:19:22;9.47;84.73
70246;SHT30;57637;49.272;8.590;2023-03-19T01:21:48;9.62;84.92
70246;SHT30;57637;49.272;8.590;2023-03-19T01:24:14;9.67;84.20
70246;SHT30;57637;49.272;8.590;2023-03-19T01:26:41;9.69;83.88
70246;SHT30;57637;49.272;8.590;2023-03-19T01:29:07;9.61;84.41
70246;SHT30;57637;49.272;8.590;2023-03-19T01:31:33;9.50;85.08
70246;SHT30;57637;49.272;8.590;2023-03-19T01:33:59;9.45;85.47
70246;SHT30;57637;49.272;8.590;2023-03-19T01:36:25;9.38;85.64
70246;SHT30;57637;49.272;8.590;2023-03-19T01:38:51;9.37;85.81
70246;SHT30;57637;49.272;8.590;2023-03-19T01:41:16;9.32;85.95
70246;SHT30;57637;49.272;8.590;2023-03-19T01:43:42;9.31;85.98
70246;SHT30;57637;49.272;8.590;2023-03-19T01:46:53;9.32;85.56
70246;SHT30;57637;49.272;8.590;2023-03-19T01:49:02;9.30;84.64
70246;SHT30;57637;49.272;8.590;2023-03-19T01:51:40;9.28;84.89
70246;SHT30;57637;49.272;8.590;2023-03-19T01:54:11;9.30;84.81
70246;SHT30;57637;49.272;8.590;2023-03-19T01:56:39;9.28;84.60
70246;SHT30;57637;49.272;8.590;2023-03-19T01:59:11;9.27;84.43
70246;SHT30;57637;49.272;8.590;2023-03-19T02:04:46;9.30;84.19
70246;SHT30;57637;49.272;8.590;2023-03-19T02:07:16;9.32;84.35
70246;SHT30;57637;49.272;8.590;2023-03-19T02:09:41;9.30;84.14
70246;SHT30;57637;49.272;8.590;2023-03-19T02:12:08;9.30;83.87
70246;SHT30;57637;49.272;8.590;2023-03-19T02:14:34;9.32;83.56
70246;SHT30;57637;49.272;8.590;2023-03-19T02:16:59;9.35;83.07
70246;SHT30;57637;49.272;8.590;2023-03-19T02:22:32;9.42;82.23
70246;SHT30;57637;49.272;8.590;2023-03-19T02:25:05;9.47;81.85
70246;SHT30;57637;49.272;8.590;2023-03-19T02:27:35;9.54;81.27
70246;SHT30;57637;49.272;8.590;2023-03-19T02:30:15;9.58;80.58
70246;SHT30;57637;49.272;8.590;2023-03-19T02:32:42;9.65;79.92
70246;SHT30;57637;49.272;8.590;2023-03-19T02:35:08;9.72;79.43
70246;SHT30;57637;49.272;8.590;2023-03-19T02:37:34;9.75;79.14
70246;SHT30;57637;49.272;8.590;2023-03-19T02:40:03;9.81;78.99
70246;SHT30;57637;49.272;8.590;2023-03-19T02:42:32;9.83;78.64
70246;SHT30;57637;49.272;8.590;2023-03-19T02:44:58;9.89;78.33
70246;SHT30;57637;49.272;8.590;2023-03-19T02:47:24;9.96;78.10
70246;SHT30;57637;49.272;8.590;2023-03-19T02:49:53;9.98;77.81
70246;SHT30;57637;49.272;8.590;2023-03-19T02:52:19;10.05;77.61
70246;SHT30;57637;49.272;8.590;2023-03-19T02:54:45;10.06;77.47
70246;SHT30;57637;49.272;8.590;2023-03-19T02:57:10;10.08;77.48
70246;SHT30;57637;49.272;8.590;2023-03-19T02:59:36;10.09;77.41
70246;SHT30;57637;49.272;8.590;2023-03-19T03:02:03;10.08;77.43
70246;SHT30;57637;49.272;8.590;2023-03-19T03:04:28;10.09;77.55
70246;SHT30;57637;49.272;8.590;2023-03-19T03:06:55;10.09;77.88
70246;SHT30;57637;49.272;8.590;2023-03-19T03:09:20;10.08;77.66
70246;SHT30;57637;49.272;8.590;2023-03-19T03:11:46;10.08;77.64
70246;SHT30;57637;49.272;8.590;2023-03-19T03:14:12;10.09;77.72
70246;SHT30;57637;49.272;8.590;2023-03-19T03:16:37;10.05;77.80
70246;SHT30;57637;49.272;8.590;2023-03-19T03:19:03;10.03;78.25
70246;SHT30;57637;49.272;8.590;2023-03-19T03:21:30;10.03;78.22
70246;SHT30;57637;49.272;8.590;2023-03-19T03:23:55;10.06;78.61
70246;SHT30;57637;49.272;8.590;2023-03-19T03:26:21;10.03;78.49
70246;SHT30;57637;49.272;8.590;2023-03-19T03:28:46;10.06;78.30
70246;SHT30;57637;49.272;8.590;2023-03-19T03:31:12;10.02;78.35
70246;SHT30;57637;49.272;8.590;2023-03-19T03:33:37;10.06;78.26
70246;SHT30;57637;49.272;8.590;2023-03-19T03:36:03;10.08;78.19
70246;SHT30;57637;49.272;8.590;2023-03-19T03:38:28;10.12;77.99
70246;SHT30;57637;49.272;8.590;2023-03-19T03:40:54;10.14;77.86
70246;SHT30;57637;49.272;8.590;2023-03-19T03:43:19;10.16;77.85
70246;SHT30;57637;49.272;8.590;2023-03-19T03:45:46;10.19;77.93
70246;SHT30;57637;49.272;8.590;2023-03-19T03:48:12;10.19;77.90
70246;SHT30;57637;49.272;8.590;2023-03-19T03:50:38;10.22;77.80
70246;SHT30;57637;49.272;8.590;2023-03-19T03:53:04;10.23;77.64
70246;SHT30;57637;49.272;8.590;2023-03-19T03:55:29;10.26;77.40
70246;SHT30;57637;49.272;8.590;2023-03-19T03:57:56;10.26;77.32
70246;SHT30;57637;49.272;8.590;2023-03-19T04:00:21;10.32;77.22
70246;SHT30;57637;49.272;8.590;2023-03-19T04:02:48;10.32;77.20
70246;SHT30;57637;49.272;8.590;2023-03-19T04:05:13;10.30;77.18
70246;SHT30;57637;49.272;8.590;2023-03-19T04:07:39;10.30;77.04
70246;SHT30;57637;49.272;8.590;2023-03-19T04:10:05;10.29;77.09
70246;SHT30;57637;49.272;8.590;2023-03-19T04:12:31;10.30;76.99
70246;SHT30;57637;49.272;8.590;2023-03-19T04:14:57;10.28;76.97
70246;SHT30;57637;49.272;8.590;2023-03-19T04:17:22;10.24;77.07
70246;SHT30;57637;49.272;8.590;2023-03-19T04:19:48;10.23;77.14
70246;SHT30;57637;49.272;8.590;2023-03-19T04:22:13;10.20;77.41
70246;SHT30;57637;49.272;8.590;2023-03-19T04:24:39;10.19;77.56
70246;SHT30;57637;49.272;8.590;2023-03-19T04:27:05;10.14;77.49
70246;SHT30;57637;49.272;8.590;2023-03-19T04:29:31;10.14;77.59
70246;SHT30;57637;49.272;8.590;2023-03-19T04:31:57;10.09;77.63
70246;SHT30;57637;49.272;8.590;2023-03-19T04:34:22;10.08;77.51
70246;SHT30;57637;49.272;8.590;2023-03-19T04:36:48;10.08;77.50
70246;SHT30;57637;49.272;8.590;2023-03-19T04:39:13;10.03;77.65
70246;SHT30;57637;49.272;8.590;2023-03-19T04:41:39;10.02;77.73
70246;SHT30;57637;49.272;8.590;2023-03-19T04:44:04;10.01;77.56
70246;SHT30;57637;49.272;8.590;2023-03-19T04:46:29;10.01;77.58
70246;SHT30;57637;49.272;8.590;2023-03-19T04:48:55;9.99;77.70
70246;SHT30;57637;49.272;8.590;2023-03-19T04:51:20;10.01;77.85
70246;SHT30;57637;49.272;8.590;2023-03-19T04:53:46;9.99;77.92
70246;SHT30;57637;49.272;8.590;2023-03-19T04:56:11;9.99;77.76
70246;SHT30;57637;49.272;8.590;2023-03-19T04:58:40;9.99;77.71
70246;SHT30;57637;49.272;8.590;2023-03-19T05:01:06;10.01;77.88
70246;SHT30;57637;49.272;8.590;2023-03-19T05:03:31;10.01;77.79
70246;SHT30;57637;49.272;8.590;2023-03-19T05:05:57;10.01;78.30
70246;SHT30;57637;49.272;8.590;2023-03-19T05:08:22;10.01;78.13
70246;SHT30;57637;49.272;8.590;2023-03-19T05:10:47;10.02;77.85
70246;SHT30;57637;49.272;8.590;2023-03-19T05:13:13;10.05;77.79
70246;SHT30;57637;49.272;8.590;2023-03-19T05:15:40;10.05;78.07
70246;SHT30;57637;49.272;8.590;2023-03-19T05:18:07;10.06;77.78
70246;SHT30;57637;49.272;8.590;2023-03-19T05:20:32;10.06;77.90
70246;SHT30;57637;49.272;8.590;2023-03-19T05:22:58;10.06;78.66
70246;SHT30;57637;49.272;8.590;2023-03-19T05:25:24;9.99;78.90
70246;SHT30;57637;49.272;8.590;2023-03-19T05:27:49;9.99;79.00
70246;SHT30;57637;49.272;8.590;2023-03-19T05:30:14;9.99;79.06
70246;SHT30;57637;49.272;8.590;2023-03-19T05:32:42;9.95;79.12
70246;SHT30;57637;49.272;8.590;2023-03-19T05:35:08;9.99;79.21
70246;SHT30;57637;49.272;8.590;2023-03-19T05:37:33;10.01;79.33
70246;SHT30;57637;49.272;8.590;2023-03-19T05:39:59;10.08;79.03
70246;SHT30;57637;49.272;8.590;2023-03-19T05:42:24;10.12;78.53
70246;SHT30;57637;49.272;8.590;2023-03-19T05:44:50;10.09;78.44
70246;SHT30;57637;49.272;8.590;2023-03-19T05:47:16;10.12;78.48
70246;SHT30;57637;49.272;8.590;2023-03-19T05:49:41;10.13;77.83
70246;SHT30;57637;49.272;8.590;2023-03-19T05:52:06;10.17;77.91
70246;SHT30;57637;49.272;8.590;2023-03-19T05:54:33;10.16;77.98
70246;SHT30;57637;49.272;8.590;2023-03-19T05:56:58;10.22;77.70
70246;SHT30;57637;49.272;8.590;2023-03-19T05:59:23;10.24;77.72
70246;SHT30;57637;49.272;8.590;2023-03-19T06:01:49;10.24;77.79
70246;SHT30;57637;49.272;8.590;2023-03-19T06:04:15;10.26;77.90
70246;SHT30;57637;49.272;8.590;2023-03-19T06:06:40;10.28;77.78
70246;SHT30;57637;49.272;8.590;2023-03-19T06:09:06;10.24;77.81
70246;SHT30;57637;49.272;8.590;2023-03-19T06:11:31;10.26;78.08
70246;SHT30;57637;49.272;8.590;2023-03-19T06:13:56;10.26;78.47
70246;SHT30;57637;49.272;8.590;2023-03-19T06:16:22;10.24;80.07
70246;SHT30;57637;49.272;8.590;2023-03-19T06:18:47;10.23;81.65
70246;SHT30;57637;49.272;8.590;2023-03-19T06:21:13;10.20;82.14
70246;SHT30;57637;49.272;8.590;2023-03-19T06:23:38;10.17;81.52
70246;SHT30;57637;49.272;8.590;2023-03-19T06:26:04;10.17;80.64
70246;SHT30;57637;49.272;8.590;2023-03-19T06:28:30;10.24;80.57
70246;SHT30;57637;49.272;8.590;2023-03-19T06:30:56;10.28;80.26
70246;SHT30;57637;49.272;8.590;2023-03-19T06:33:22;10.30;80.24
70246;SHT30;57637;49.272;8.590;2023-03-19T06:35:51;10.30;79.96
70246;SHT30;57637;49.272;8.590;2023-03-19T06:38:17;10.37;79.91
70246;SHT30;57637;49.272;8.590;2023-03-19T06:40:42;10.42;79.43
70246;SHT30;57637;49.272;8.590;2023-03-19T06:43:08;10.42;78.55
70246;SHT30;57637;49.272;8.590;2023-03-19T06:45:33;10.50;78.10
70246;SHT30;57637;49.272;8.590;2023-03-19T06:47:58;10.61;77.61
70246;SHT30;57637;49.272;8.590;2023-03-19T06:50:24;10.65;77.36
70246;SHT30;57637;49.272;8.590;2023-03-19T06:52:49;10.70;77.21
70246;SHT30;57637;49.272;8.590;2023-03-19T06:55:15;10.77;77.13
70246;SHT30;57637;49.272;8.590;2023-03-19T06:57:41;10.83;76.81
70246;SHT30;57637;49.272;8.590;2023-03-19T07:00:07;10.85;76.44
70246;SHT30;57637;49.272;8.590;2023-03-19T07:02:35;10.91;76.09
70246;SHT30;57637;49.272;8.590;2023-03-19T07:05:00;10.90;75.54
70246;SHT30;57637;49.272;8.590;2023-03-19T07:07:26;10.90;75.21
70246;SHT30;57637;49.272;8.590;2023-03-19T07:09:51;10.95;75.09
70246;SHT30;57637;49.272;8.590;2023-03-19T07:12:17;11.01;75.09
70246;SHT30;57637;49.272;8.590;2023-03-19T07:14:42;11.05;74.86
70246;SHT30;57637;49.272;8.590;2023-03-19T07:17:07;11.14;74.54
70246;SHT30;57637;49.272;8.590;2023-03-19T07:19:33;11.24;74.52
70246;SHT30;57637;49.272;8.590;2023-03-19T07:21:58;11.38;74.35
70246;SHT30;57637;49.272;8.590;2023-03-19T07:24:24;11.51;74.07
70246;SHT30;57637;49.272;8.590;2023-03-19T07:26:49;11.59;73.89
70246;SHT30;57637;49.272;8.590;2023-03-19T07:29:15;11.65;73.86
70246;SHT30;57637;49.272;8.590;2023-03-19T07:31:41;11.82;73.25
70246;SHT30;57637;49.272;8.590;2023-03-19T07:34:07;11.89;73.04
70246;SHT30;57637;49.272;8.590;2023-03-19T07:36:32;11.99;72.48
70246;SHT30;57637;49.272;8.590;2023-03-19T07:38:57;12.09;71.52
70246;SHT30;57637;49.272;8.590;2023-03-19T07:41:23;12.20;72.11
70246;SHT30;57637;49.272;8.590;2023-03-19T07:43:48;12.36;71.37
70246;SHT30;57637;49.272;8.590;2023-03-19T07:46:14;12.48;71.29
70246;SHT30;57637;49.272;8.590;2023-03-19T07:48:39;12.50;71.21
70246;SHT30;57637;49.272;8.590;2023-03-19T07:51:05;12.57;70.75
70246;SHT30;57637;49.272;8.590;2023-03-19T07:53:30;12.75;70.42
70246;SHT30;57637;49.272;8.590;2023-03-19T07:55:56;12.89;69.79
70246;SHT30;57637;49.272;8.590;2023-03-19T07:58:21;12.91;69.36
70246;SHT30;57637;49.272;8.590;2023-03-19T08:00:46;13.16;69.43
70246;SHT30;57637;49.272;8.590;2023-03-19T08:03:12;13.59;67.13
70246;SHT30;57637;49.272;8.590;2023-03-19T08:05:38;13.71;66.52
70246;SHT30;57637;49.272;8.590;2023-03-19T08:08:04;13.75;67.31
70246;SHT30;57637;49.272;8.590;2023-03-19T08:10:29;13.70;66.52
70246;SHT30;57637;49.272;8.590;2023-03-19T08:12:55;13.77;66.83
70246;SHT30;57637;49.272;8.590;2023-03-19T08:15:21;14.00;66.02
70246;SHT30;57637;49.272;8.590;2023-03-19T08:17:46;14.14;65.18
70246;SHT30;57637;49.272;8.590;2023-03-19T08:20:13;14.35;64.60
70246;SHT30;57637;49.272;8.590;2023-03-19T08:22:42;14.49;64.42
70246;SHT30;57637;49.272;8.590;2023-03-19T08:25:09;14.46;63.29
70246;SHT30;57637;49.272;8.590;2023-03-19T08:27:35;14.76;63.49
70246;SHT30;57637;49.272;8.590;2023-03-19T08:30:01;15.03;61.74
70246;SHT30;57637;49.272;8.590;2023-03-19T08:32:28;15.37;60.41
70246;SHT30;57637;49.272;8.590;2023-03-19T08:34:53;15.74;60.51
70246;SHT30;57637;49.272;8.590;2023-03-19T08:37:18;16.13;57.99
70246;SHT30;57637;49.272;8.590;2023-03-19T08:39:44;16.51;57.59
70246;SHT30;57637;49.272;8.590;2023-03-19T08:42:09;16.87;56.36
70246;SHT30;57637;49.272;8.590;2023-03-19T08:44:35;16.95;55.62
70246;SHT30;57637;49.272;8.590;2023-03-19T08:47:01;17.42;54.85
70246;SHT30;57637;49.272;8.590;2023-03-19T08:49:26;17.06;54.52
70246;SHT30;57637;49.272;8.590;2023-03-19T08:51:51;17.44;52.92
70246;SHT30;57637;49.272;8.590;2023-03-19T08:54:17;17.55;53.41
70246;SHT30;57637;49.272;8.590;2023-03-19T08:56:42;17.81;52.80
70246;SHT30;57637;49.272;8.590;2023-03-19T08:59:08;18.12;52.91
70246;SHT30;57637;49.272;8.590;2023-03-19T09:01:33;18.29;52.28
70246;SHT30;57637;49.272;8.590;2023-03-19T09:03:58;18.26;51.56
70246;SHT30;57637;49.272;8.590;2023-03-19T09:06:24;18.32;51.77
70246;SHT30;57637;49.272;8.590;2023-03-19T09:08:49;18.17;51.04
70246;SHT30;57637;49.272;8.590;2023-03-19T09:11:15;17.96;50.77
70246;SHT30;57637;49.272;8.590;2023-03-19T09:13:41;18.13;51.67
70246;SHT30;57637;49.272;8.590;2023-03-19T09:16:07;18.29;50.99
70246;SHT30;57637;49.272;8.590;2023-03-19T09:18:33;18.49;51.47
70246;SHT30;57637;49.272;8.590;2023-03-19T09:20:59;18.75;50.42
70246;SHT30;57637;49.272;8.590;2023-03-19T09:23:25;19.02;49.12
70246;SHT30;57637;49.272;8.590;2023-03-19T09:25:51;18.97;49.40
70246;SHT30;57637;49.272;8.590;2023-03-19T09:28:17;19.10;50.35
70246;SHT30;57637;49.272;8.590;2023-03-19T09:30:46;19.02;49.73
70246;SHT30;57637;49.272;8.590;2023-03-19T09:33:13;18.75;49.70
70246;SHT30;57637;49.272;8.590;2023-03-19T09:35:40;18.92;49.66
70246;SHT30;57637;49.272;8.590;2023-03-19T09:38:06;18.80;48.56
70246;SHT30;57637;49.272;8.590;2023-03-19T09:45:41;18.36;50.17
70246;SHT30;57637;49.272;8.590;2023-03-19T09:48:10;18.43;50.22
70246;SHT30;57637;49.272;8.590;2023-03-19T09:50:42;18.44;50.96
70246;SHT30;57637;49.272;8.590;2023-03-19T09:53:23;18.39;50.91
70246;SHT30;57637;49.272;8.590;2023-03-19T09:56:01;18.68;50.09
70246;SHT30;57637;49.272;8.590;2023-03-19T09:58:32;18.75;50.19
70246;SHT30;57637;49.272;8.590;2023-03-19T10:00:59;18.78;49.24
70246;SHT30;57637;49.272;8.590;2023-03-19T10:03:28;18.78;49.24
70246;SHT30;57637;49.272;8.590;2023-03-19T10:08:52;18.91;49.51
70246;SHT30;57637;49.272;8.590;2023-03-19T10:17:23;19.10;48.07
70246;SHT30;57637;49.272;8.590;2023-03-19T10:22:40;19.63;47.38
70246;SHT30;57637;49.272;8.590;2023-03-19T10:25:17;19.74;47.78
70246;SHT30;57637;49.272;8.590;2023-03-19T10:27:46;19.72;47.28
70246;SHT30;57637;49.272;8.590;2023-03-19T10:30:18;19.69;47.58
70246;SHT30;57637;49.272;8.590;2023-03-19T10:32:45;19.93;47.27
70246;SHT30;57637;49.272;8.590;2023-03-19T10:35:19;19.90;45.56
70246;SHT30;57637;49.272;8.590;2023-03-19T10:37:46;19.94;45.83
70246;SHT30;57637;49.272;8.590;2023-03-19T10:40:26;19.82;45.15
70246;SHT30;57637;49.272;8.590;2023-03-19T10:43:15;19.89;45.82
70246;SHT30;57637;49.272;8.590;2023-03-19T10:45:44;19.96;45.83
70246;SHT30;57637;49.272;8.590;2023-03-19T10:48:17;19.67;46.18
70246;SHT30;57637;49.272;8.590;2023-03-19T10:53:26;19.56;46.47
70246;SHT30;57637;49.272;8.590;2023-03-19T10:55:58;19.25;46.85
70246;SHT30;57637;49.272;8.590;2023-03-19T10:58:30;19.15;47.20
70246;SHT30;57637;49.272;8.590;2023-03-19T11:00:58;19.23;47.56
70246;SHT30;57637;49.272;8.590;2023-03-19T11:03:49;19.36;47.40
70246;SHT30;57637;49.272;8.590;2023-03-19T11:06:21;19.33;47.88
70246;SHT30;57637;49.272;8.590;2023-03-19T11:08:59;19.29;48.23
70246;SHT30;57637;49.272;8.590;2023-03-19T11:11:46;19.45;47.72
70246;SHT30;57637;49.272;8.590;2023-03-19T11:14:14;19.41;47.39
70246;SHT30;57637;49.272;8.590;2023-03-19T11:19:24;19.70;46.74
70246;SHT30;57637;49.272;8.590;2023-03-19T11:24:38;20.16;46.65
70246;SHT30;57637;49.272;8.590;2023-03-19T11:27:05;20.03;46.58
70246;SHT30;57637;49.272;8.590;2023-03-19T11:29:36;19.97;47.71
70246;SHT30;57637;49.272;8.590;2023-03-19T11:35:02;20.07;47.50
70246;SHT30;57637;49.272;8.590;2023-03-19T11:54:09;19.87;46.94
70246;SHT30;57637;49.272;8.590;2023-03-19T11:56:53;19.49;46.72
70246;SHT30;57637;49.272;8.590;2023-03-19T11:59:36;19.51;47.42
70246;SHT30;57637;49.272;8.590;2023-03-19T12:02:25;19.38;47.62
70246;SHT30;57637;49.272;8.590;2023-03-19T12:13:39;19.70;47.82
70246;SHT30;57637;49.272;8.590;2023-03-19T12:24:48;19.89;46.96
70246;SHT30;57637;49.272;8.590;2023-03-19T12:35:35;19.74;47.05
70246;SHT30;57637;49.272;8.590;2023-03-19T12:46:15;18.68;49.36
70246;SHT30;57637;49.272;8.590;2023-03-19T12:48:49;18.70;49.66
70246;SHT30;57637;49.272;8.590;2023-03-19T12:51:22;18.23;50.17
70246;SHT30;57637;49.272;8.590;2023-03-19T12:53:58;18.23;50.61
70246;SHT30;57637;49.272;8.590;2023-03-19T12:59:25;18.29;50.62
70246;SHT30;57637;49.272;8.590;2023-03-19T13:02:02;18.34;51.46
70246;SHT30;57637;49.272;8.590;2023-03-19T13:04:37;18.37;51.52
70246;SHT30;57637;49.272;8.590;2023-03-19T13:07:15;18.33;51.49
70246;SHT30;57637;49.272;8.590;2023-03-19T13:10:04;17.88;52.42
70246;SHT30;57637;49.272;8.590;2023-03-19T13:12:42;17.24;53.79
70246;SHT30;57637;49.272;8.590;2023-03-19T13:26:33;17.28;51.87
70246;SHT30;57637;49.272;8.590;2023-03-19T13:29:21;17.34;52.31
70246;SHT30;57637;49.272;8.590;2023-03-19T13:31:47;17.46;52.90
70246;SHT30;57637;49.272;8.590;2023-03-19T13:36:44;17.32;54.28
70246;SHT30;57637;49.272;8.590;2023-03-19T13:39:24;17.32;54.75
70246;SHT30;57637;49.272;8.590;2023-03-19T13:41:53;17.20;56.20
70246;SHT30;57637;49.272;8.590;2023-03-19T13:46:56;16.81;57.09
70246;SHT30;57637;49.272;8.590;2023-03-19T13:49:29;16.62;58.47
70246;SHT30;57637;49.272;8.590;2023-03-19T13:51:58;16.57;59.17
70246;SHT30;57637;49.272;8.590;2023-03-19T13:59:38;16.38;60.81
70246;SHT30;57637;49.272;8.590;2023-03-19T14:05:01;16.33;62.49
70246;SHT30;57637;49.272;8.590;2023-03-19T14:07:34;16.41;62.77
70246;SHT30;57637;49.272;8.590;2023-03-19T14:10:06;16.28;62.91
70246;SHT30;57637;49.272;8.590;2023-03-19T14:12:38;16.15;63.57
70246;SHT30;57637;49.272;8.590;2023-03-19T14:25:24;16.97;61.68
70246;SHT30;57637;49.272;8.590;2023-03-19T14:27:55;17.06;61.65
70246;SHT30;57637;49.272;8.590;2023-03-19T14:30:37;16.94;60.72
70246;SHT30;57637;49.272;8.590;2023-03-19T14:33:13;17.02;60.62
70246;SHT30;57637;49.272;8.590;2023-03-19T14:35:44;17.00;60.50
70246;SHT30;57637;49.272;8.590;2023-03-19T14:38:21;16.62;60.27
70246;SHT30;57637;49.272;8.590;2023-03-19T14:40:56;16.49;60.39
70246;SHT30;57637;49.272;8.590;2023-03-19T14:46:48;16.45;60.13
70246;SHT30;57637;49.272;8.590;2023-03-19T14:52:30;16.22;62.14
70246;SHT30;57637;49.272;8.590;2023-03-19T14:54:59;16.34;61.93
70246;SHT30;57637;49.272;8.590;2023-03-19T14:57:30;16.46;62.35
70246;SHT30;57637;49.272;8.590;2023-03-19T14:59:58;16.33;62.87
70246;SHT30;57637;49.272;8.590;2023-03-19T15:04:56;16.18;63.63
70246;SHT30;57637;49.272;8.590;2023-03-19T15:07:29;16.38;62.76
70246;SHT30;57637;49.272;8.590;2023-03-19T15:09:58;16.23;63.98
70246;SHT30;57637;49.272;8.590;2023-03-19T15:17:39;16.32;63.04
70246;SHT30;57637;49.272;8.590;2023-03-19T15:20:17;16.39;63.31
70246;SHT30;57637;49.272;8.590;2023-03-19T15:22:54;16.02;63.60
70246;SHT30;57637;49.272;8.590;2023-03-19T15:25:23;16.23;62.64
70246;SHT30;57637;49.272;8.590;2023-03-19T15:30:58;16.38;63.20
70246;SHT30;57637;49.272;8.590;2023-03-19T15:33:33;16.42;62.49
70246;SHT30;57637;49.272;8.590;2023-03-19T15:39:02;16.57;62.03
70246;SHT30;57637;49.272;8.590;2023-03-19T15:41:29;16.48;62.57
70246;SHT30;57637;49.272;8.590;2023-03-19T15:43:58;16.29;62.19
70246;SHT30;57637;49.272;8.590;2023-03-19T15:46:26;16.23;62.43
70246;SHT30;57637;49.272;8.590;2023-03-19T15:48:57;16.36;62.86
70246;SHT30;57637;49.272;8.590;2023-03-19T15:51:29;16.86;61.28
70246;SHT30;57637;49.272;8.590;2023-03-19T15:53:55;17.03;60.25
70246;SHT30;57637;49.272;8.590;2023-03-19T15:56:23;17.10;60.00
70246;SHT30;57637;49.272;8.590;2023-03-19T15:58:49;17.14;59.85
70246;SHT30;57637;49.272;8.590;2023-03-19T16:01:17;16.95;60.32
70246;SHT30;57637;49.272;8.590;2023-03-19T16:03:44;17.02;60.19
70246;SHT30;57637;49.272;8.590;2023-03-19T16:06:24;16.93;60.07
70246;SHT30;57637;49.272;8.590;2023-03-19T16:08:52;16.97;59.75
70246;SHT30;57637;49.272;8.590;2023-03-19T16:11:28;16.99;60.02
70246;SHT30;57637;49.272;8.590;2023-03-19T16:13:59;17.03;60.79
70246;SHT30;57637;49.272;8.590;2023-03-19T16:16:30;17.27;59.60
70246;SHT30;57637;49.272;8.590;2023-03-19T16:18:57;17.31;59.18
70246;SHT30;57637;49.272;8.590;2023-03-19T16:23:53;16.84;58.85
70246;SHT30;57637;49.272;8.590;2023-03-19T16:26:45;16.74;59.41
70246;SHT30;57637;49.272;8.590;2023-03-19T16:29:17;16.56;60.29
70246;SHT30;57637;49.272;8.590;2023-03-19T16:31:48;16.42;60.41
70246;SHT30;57637;49.272;8.590;2023-03-19T16:39:54;15.98;60.95
70246;SHT30;57637;49.272;8.590;2023-03-19T16:45:01;15.92;61.15
70246;SHT30;57637;49.272;8.590;2023-03-19T16:47:41;15.80;61.73
70246;SHT30;57637;49.272;8.590;2023-03-19T16:50:08;15.74;61.99
70246;SHT30;57637;49.272;8.590;2023-03-19T16:52:34;15.72;62.63
70246;SHT30;57637;49.272;8.590;2023-03-19T16:55:00;15.61;62.29
70246;SHT30;57637;49.272;8.590;2023-03-19T16:57:27;15.50;62.56
70246;SHT30;57637;49.272;8.590;2023-03-19T16:59:52;15.38;62.79
70246;SHT30;57637;49.272;8.590;2023-03-19T17:02:18;15.31;63.11
70246;SHT30;57637;49.272;8.590;2023-03-19T17:04:44;15.24;63.74
70246;SHT30;57637;49.272;8.590;2023-03-19T17:07:10;15.14;64.43
70246;SHT30;57637;49.272;8.590;2023-03-19T17:09:36;15.10;65.03
70246;SHT30;57637;49.272;8.590;2023-03-19T17:12:02;15.00;65.35
70246;SHT30;57637;49.272;8.590;2023-03-19T17:14:30;14.90;65.60
70246;SHT30;57637;49.272;8.590;2023-03-19T17:16:56;14.82;65.85
70246;SHT30;57637;49.272;8.590;2023-03-19T17:19:55;14.69;66.36
70246;SHT30;57637;49.272;8.590;2023-03-19T17:22:15;14.54;66.87
70246;SHT30;57637;49.272;8.590;2023-03-19T17:24:40;14.46;67.50
70246;SHT30;57637;49.272;8.590;2023-03-19T17:27:07;14.35;67.14
70246;SHT30;57637;49.272;8.590;2023-03-19T17:29:33;14.25;66.65
70246;SHT30;57637;49.272;8.590;2023-03-19T17:31:59;14.17;66.47
70246;SHT30;57637;49.272;8.590;2023-03-19T17:34:27;14.10;66.59
70246;SHT30;57637;49.272;8.590;2023-03-19T17:36:57;14.01;66.95
70246;SHT30;57637;49.272;8.590;2023-03-19T17:39:24;13.88;67.33
70246;SHT30;57637;49.272;8.590;2023-03-19T17:41:50;13.85;67.49
70246;SHT30;57637;49.272;8.590;2023-03-19T17:44:18;13.78;67.93
70246;SHT30;57637;49.272;8.590;2023-03-19T17:46:44;13.78;67.94
70246;SHT30;57637;49.272;8.590;2023-03-19T17:49:23;13.67;68.29
70246;SHT30;57637;49.272;8.590;2023-03-19T17:51:53;13.64;68.71
70246;SHT30;57637;49.272;8.590;2023-03-19T17:54:19;13.60;70.07
70246;SHT30;57637;49.272;8.590;2023-03-19T17:56:45;13.53;71.78
70246;SHT30;57637;49.272;8.590;2023-03-19T17:59:10;13.44;72.78
70246;SHT30;57637;49.272;8.590;2023-03-19T18:01:37;13.35;73.55
70246;SHT30;57637;49.272;8.590;2023-03-19T18:04:04;13.32;74.31
70246;SHT30;57637;49.272;8.590;2023-03-19T18:06:34;13.23;74.58
70246;SHT30;57637;49.272;8.590;2023-03-19T18:09:04;13.15;74.74
70246;SHT30;57637;49.272;8.590;2023-03-19T18:11:29;13.08;75.81